Time;durP1;ratioP1;P1;durP2;ratioP2;P2;SDS_P1;SDS_P2;PMS_P1;PMS_P2;Temp;Humidity;BMP_temperature;BMP_pressure;BME280_temperature;BME280_humidity;BME280_pressure;Samples;Min_cycle;Max_cycle;Signal;HPM_P1;HPM_P2
2022/10/08 00:00:54;;;;;;;;;;;13.00;99.90;;;;;;6116340;23;19921;-66
2022/10/08 00:03:20;;;;;;;;;;;13.00;99.90;;;;;;6115868;23;20340;-65
2022/10/08 00:05:58;;;;;;;;;;;13.00;99.90;;;;;;6116011;23;20000;-66
2022/10/08 00:08:24;;;;;;;;;;;12.90;99.90;;;;;;6115961;23;19929;-65
2022/10/08 00:10:53;;;;;;;;;;;12.90;99.90;;;;;;6116362;23;19978;-65
2022/10/08 00:13:19;;;;;;;;;;;12.90;99.90;;;;;;6115610;23;20343;-66
2022/10/08 00:15:45;;;;;;;;;;;12.90;99.90;;;;;;6113730;23;19996;-66
2022/10/08 00:18:10;;;;;;;;;;;12.80;99.90;;;;;;6115514;23;19932;-64
2022/10/08 00:20:36;;;;;;;;;;;12.80;99.90;;;;;;6116341;23;19925;-63
2022/10/08 00:23:01;;;;;;;;;;;12.80;99.90;;;;;;6116727;23;19928;-62
2022/10/08 00:25:27;;;;;;;;;;;12.80;99.90;;;;;;6116968;23;19925;-62
2022/10/08 00:27:53;;;;;;;;;;;13.10;99.90;;;;;;6116129;23;20099;-62
2022/10/08 00:30:19;;;;;;;;;;;12.80;99.90;;;;;;6116585;23;19924;-62
2022/10/08 00:32:44;;;;;;;;;;;12.80;99.90;;;;;;6115504;23;20000;-62
2022/10/08 00:35:10;;;;;;;;;;;12.80;99.90;;;;;;6116803;23;19932;-62
2022/10/08 00:37:35;;;;;;;;;;;12.80;99.90;;;;;;6116037;23;19925;-62
2022/10/08 00:40:01;;;;;;;;;;;12.80;99.90;;;;;;6114686;23;19936;-63
2022/10/08 00:42:27;;;;;;;;;;;12.80;99.90;;;;;;6116654;23;19924;-63
2022/10/08 00:44:54;;;;;;;;;;;12.80;99.90;;;;;;6116748;23;19925;-63
2022/10/08 00:47:32;;;;;;;;;;;12.70;99.90;;;;;;6116168;23;20256;-62
2022/10/08 00:50:21;;;;;;;;;;;12.70;99.90;;;;;;6116582;23;19999;-62
2022/10/08 00:52:48;;;;;;;;;;;12.70;99.90;;;;;;6119650;23;19960;-62
2022/10/08 00:55:16;;;;;;;;;;;12.70;99.90;;;;;;6116421;23;19968;-62
2022/10/08 00:57:42;;;;;;;;;;;12.70;99.90;;;;;;6116171;23;19932;-62
2022/10/08 01:00:09;;;;;;;;;;;13.00;99.90;;;;;;6114277;23;20019;-62
2022/10/08 01:02:35;;;;;;;;;;;12.70;99.90;;;;;;6115842;23;19925;-62
2022/10/08 01:05:01;;;;;;;;;;;12.90;99.90;;;;;;6116516;23;19932;-62
2022/10/08 01:07:31;;;;;;;;;;;12.70;99.90;;;;;;6115698;23;20012;-63
2022/10/08 01:10:05;;;;;;;;;;;12.70;99.90;;;;;;6116390;23;19925;-62
2022/10/08 01:12:33;;;;;;;;;;;12.70;99.90;;;;;;6116163;23;19929;-63
2022/10/08 01:15:09;;;;;;;;;;;12.70;99.90;;;;;;6116255;23;19931;-63
2022/10/08 01:17:47;;;;;;;;;;;12.70;99.90;;;;;;6115799;23;19925;-63
2022/10/08 01:20:31;;;;;;;;;;;12.70;99.90;;;;;;6116030;23;20424;-62
2022/10/08 01:22:57;;;;;;;;;;;12.70;99.90;;;;;;6115936;23;19956;-61
2022/10/08 01:25:31;;;;;;;;;;;12.70;99.90;;;;;;6116584;23;19925;-61
2022/10/08 01:28:07;;;;;;;;;;;12.60;99.90;;;;;;6116100;23;19931;-63
2022/10/08 01:30:34;;;;;;;;;;;12.60;99.90;;;;;;6116009;23;19995;-62
2022/10/08 01:33:01;;;;;;;;;;;12.60;99.90;;;;;;6115930;23;20349;-63
2022/10/08 01:35:29;;;;;;;;;;;12.60;99.90;;;;;;6115978;23;20496;-61
2022/10/08 01:37:57;;;;;;;;;;;12.60;99.90;;;;;;6115580;23;19970;-62
2022/10/08 01:40:26;;;;;;;;;;;12.60;99.90;;;;;;6115377;23;20403;-62
2022/10/08 01:42:52;;;;;;;;;;;12.60;99.90;;;;;;6116184;23;19925;-63
2022/10/08 01:45:23;;;;;;;;;;;12.60;99.90;;;;;;6117753;23;19924;-62
2022/10/08 01:47:50;;;;;;;;;;;12.50;99.90;;;;;;6117039;23;19951;-62
2022/10/08 01:50:27;;;;;;;;;;;12.50;99.90;;;;;;6117005;23;19924;-61
2022/10/08 01:52:58;;;;;;;;;;;12.50;99.90;;;;;;6115892;23;19925;-61
2022/10/08 01:55:27;;;;;;;;;;;12.50;99.90;;;;;;6117260;23;19929;-62
2022/10/08 01:57:56;;;;;;;;;;;12.40;99.90;;;;;;6116892;23;19967;-61
2022/10/08 02:00:21;;;;;;;;;;;12.40;99.90;;;;;;6117133;23;19959;-61
2022/10/08 02:02:47;;;;;;;;;;;12.40;99.90;;;;;;6115525;23;19925;-61
2022/10/08 02:05:13;;;;;;;;;;;12.30;99.90;;;;;;6116731;23;20233;-61
2022/10/08 02:07:41;;;;;;;;;;;12.30;99.90;;;;;;6116849;23;19971;-63
2022/10/08 02:10:17;;;;;;;;;;;12.30;99.90;;;;;;6117358;23;19932;-65
2022/10/08 02:12:43;;;;;;;;;;;12.20;99.90;;;;;;6116902;23;20414;-62
2022/10/08 02:15:15;;;;;;;;;;;12.20;99.90;;;;;;6116652;23;19925;-61
2022/10/08 02:17:53;;;;;;;;;;;12.10;99.90;;;;;;6116169;23;19924;-62
2022/10/08 02:20:31;;;;;;;;;;;12.10;99.90;;;;;;6116755;23;20367;-63
2022/10/08 02:23:17;;;;;;;;;;;12.00;99.90;;;;;;6116689;23;20323;-62
2022/10/08 02:25:50;;;;;;;;;;;12.00;99.90;;;;;;6117357;23;20255;-63
2022/10/08 02:28:15;;;;;;;;;;;11.90;99.90;;;;;;6117222;23;19924;-64
2022/10/08 02:30:59;;;;;;;;;;;12.10;99.90;;;;;;6116953;23;20263;-65
2022/10/08 02:33:54;;;;;;;;;;;11.80;99.90;;;;;;6116961;23;19932;-62
2022/10/08 02:36:24;;;;;;;;;;;11.70;99.90;;;;;;6123118;23;19999;-65
2022/10/08 02:38:52;;;;;;;;;;;11.70;99.90;;;;;;6117547;23;19975;-62
2022/10/08 02:41:20;;;;;;;;;;;11.70;99.90;;;;;;6116411;23;19932;-62
2022/10/08 02:43:47;;;;;;;;;;;11.60;99.90;;;;;;6117113;23;19940;-63
2022/10/08 02:46:16;;;;;;;;;;;11.60;99.90;;;;;;6116991;23;19932;-61
2022/10/08 02:48:51;;;;;;;;;;;11.50;99.90;;;;;;6114824;23;20252;-62
2022/10/08 02:51:18;;;;;;;;;;;11.50;99.90;;;;;;6116858;23;20020;-61
2022/10/08 02:53:44;;;;;;;;;;;11.50;99.90;;;;;;6116905;23;19925;-62
2022/10/08 02:56:13;;;;;;;;;;;11.40;99.90;;;;;;6116424;23;20321;-62
2022/10/08 02:58:40;;;;;;;;;;;11.30;99.90;;;;;;6116407;23;19971;-65
2022/10/08 03:01:13;;;;;;;;;;;11.30;99.90;;;;;;6117064;23;19925;-65
2022/10/08 03:03:45;;;;;;;;;;;11.30;99.90;;;;;;6117109;23;19925;-65
2022/10/08 03:06:12;;;;;;;;;;;11.20;99.90;;;;;;6116256;23;19933;-63
2022/10/08 03:08:40;;;;;;;;;;;11.20;99.90;;;;;;6116723;23;19924;-66
2022/10/08 03:11:06;;;;;;;;;;;11.20;99.90;;;;;;6116469;23;20327;-66
2022/10/08 03:13:40;;;;;;;;;;;11.10;99.90;;;;;;6117099;23;19932;-62
2022/10/08 03:16:07;;;;;;;;;;;11.10;99.90;;;;;;6117397;23;19929;-66
2022/10/08 03:18:34;;;;;;;;;;;11.10;99.90;;;;;;6117252;23;19925;-64
2022/10/08 03:21:00;;;;;;;;;;;11.00;99.90;;;;;;6117352;23;19925;-65
2022/10/08 03:23:25;;;;;;;;;;;11.00;99.90;;;;;;6116935;23;20418;-66
2022/10/08 03:25:51;;;;;;;;;;;11.00;99.90;;;;;;6116896;23;19932;-66
2022/10/08 03:28:16;;;;;;;;;;;10.90;99.90;;;;;;6116545;23;19925;-65
2022/10/08 03:30:42;;;;;;;;;;;10.90;99.90;;;;;;6115780;23;19979;-64
2022/10/08 03:33:07;;;;;;;;;;;10.90;99.90;;;;;;6116658;23;19925;-65
2022/10/08 03:35:33;;;;;;;;;;;10.80;99.90;;;;;;6116872;23;19928;-65
2022/10/08 03:37:58;;;;;;;;;;;10.80;99.90;;;;;;6115232;23;20247;-65
2022/10/08 03:40:24;;;;;;;;;;;11.00;99.90;;;;;;6115835;23;19971;-66
2022/10/08 03:42:50;;;;;;;;;;;10.80;99.90;;;;;;6116586;23;19932;-65
2022/10/08 03:45:15;;;;;;;;;;;10.80;99.90;;;;;;6116782;23;20000;-62
2022/10/08 03:47:41;;;;;;;;;;;10.90;99.90;;;;;;6116633;23;19931;-62
2022/10/08 03:50:07;;;;;;;;;;;10.90;99.90;;;;;;6117063;23;19999;-62
2022/10/08 03:52:32;;;;;;;;;;;10.90;99.90;;;;;;6116268;23;20332;-63
2022/10/08 03:54:58;;;;;;;;;;;10.90;99.90;;;;;;6116437;23;19932;-62
2022/10/08 03:57:23;;;;;;;;;;;10.90;99.90;;;;;;6116482;23;19982;-62
2022/10/08 03:59:49;;;;;;;;;;;10.90;99.90;;;;;;6117081;23;20002;-63
2022/10/08 04:02:14;;;;;;;;;;;10.90;99.90;;;;;;6116589;23;20007;-62
2022/10/08 04:04:40;;;;;;;;;;;10.90;99.90;;;;;;6115947;23;19954;-61
2022/10/08 04:07:06;;;;;;;;;;;11.00;99.90;;;;;;6115901;23;19925;-62
2022/10/08 04:09:31;;;;;;;;;;;11.00;99.90;;;;;;6116106;23;20330;-64
2022/10/08 04:11:57;;;;;;;;;;;10.90;99.90;;;;;;6116231;23;19960;-64
2022/10/08 04:14:22;;;;;;;;;;;10.90;99.90;;;;;;6116334;23;19970;-63
2022/10/08 04:16:48;;;;;;;;;;;10.90;99.90;;;;;;6116654;23;19925;-62
2022/10/08 04:19:13;;;;;;;;;;;10.90;99.90;;;;;;6116290;23;19936;-63
2022/10/08 04:21:39;;;;;;;;;;;10.80;99.90;;;;;;6116510;23;19932;-65
2022/10/08 04:24:04;;;;;;;;;;;11.10;99.90;;;;;;6115069;23;19985;-65
2022/10/08 04:26:30;;;;;;;;;;;10.90;99.90;;;;;;6114774;23;20043;-63
2022/10/08 04:28:55;;;;;;;;;;;10.90;99.90;;;;;;6111253;23;20353;-62
2022/10/08 04:31:22;;;;;;;;;;;10.90;99.90;;;;;;6114054;23;19964;-64
2022/10/08 04:33:48;;;;;;;;;;;10.90;99.90;;;;;;6115588;23;19925;-63
2022/10/08 04:36:18;;;;;;;;;;;10.90;99.90;;;;;;6113664;23;20455;-63
2022/10/08 04:38:44;;;;;;;;;;;12.00;99.90;;;;;;6115092;23;19935;-65
2022/10/08 04:41:12;;;;;;;;;;;10.80;99.90;;;;;;6115529;23;19991;-65
2022/10/08 04:43:39;;;;;;;;;;;10.80;99.90;;;;;;6115535;23;19924;-63
2022/10/08 04:46:06;;;;;;;;;;;10.70;99.90;;;;;;6113628;23;19983;-62
2022/10/08 04:48:31;;;;;;;;;;;10.70;99.90;;;;;;6114843;23;20237;-65
2022/10/08 04:50:58;;;;;;;;;;;10.70;99.90;;;;;;6115001;23;19948;-63
2022/10/08 04:53:24;;;;;;;;;;;10.70;99.90;;;;;;6115599;23;19936;-66
2022/10/08 04:55:50;;;;;;;;;;;10.70;99.90;;;;;;6115410;23;20021;-65
2022/10/08 04:58:16;;;;;;;;;;;10.90;99.90;;;;;;6115339;23;19921;-66
2022/10/08 05:00:41;;;;;;;;;;;10.70;99.90;;;;;;6115687;23;19925;-62
2022/10/08 05:03:07;;;;;;;;;;;10.60;99.90;;;;;;6115858;23;19925;-63
2022/10/08 05:05:32;;;;;;;;;;;10.50;99.90;;;;;;6116305;23;19924;-62
2022/10/08 05:07:58;;;;;;;;;;;10.50;99.90;;;;;;6115166;23;19971;-64
2022/10/08 05:10:23;;;;;;;;;;;10.50;99.90;;;;;;6115790;23;19929;-65
2022/10/08 05:12:49;;;;;;;;;;;10.40;99.90;;;;;;6115186;23;19924;-64
2022/10/08 05:15:14;;;;;;;;;;;10.40;99.90;;;;;;6115507;23;19929;-65
2022/10/08 05:17:40;;;;;;;;;;;10.40;99.90;;;;;;6115866;23;20233;-65
2022/10/08 05:20:06;;;;;;;;;;;10.40;99.90;;;;;;6117195;23;19971;-65
2022/10/08 05:22:31;;;;;;;;;;;10.40;99.90;;;;;;6117399;23;19924;-65
2022/10/08 05:24:57;;;;;;;;;;;10.40;99.90;;;;;;6117134;23;20336;-63
2022/10/08 05:27:22;;;;;;;;;;;10.30;99.90;;;;;;6116939;23;19925;-65
2022/10/08 05:29:48;;;;;;;;;;;10.30;99.90;;;;;;6117317;23;19925;-62
2022/10/08 05:32:13;;;;;;;;;;;10.30;99.90;;;;;;6116550;23;20378;-62
2022/10/08 05:34:39;;;;;;;;;;;10.20;99.90;;;;;;6116812;23;20004;-65
2022/10/08 05:37:04;;;;;;;;;;;10.30;99.90;;;;;;6116596;23;19925;-63
2022/10/08 05:39:30;;;;;;;;;;;10.60;99.90;;;;;;6117323;23;19956;-62
2022/10/08 05:41:55;;;;;;;;;;;10.20;99.90;;;;;;6116735;23;19929;-65
2022/10/08 05:44:21;;;;;;;;;;;10.30;99.90;;;;;;6116721;23;19931;-65
2022/10/08 05:46:47;;;;;;;;;;;10.30;99.90;;;;;;6116070;23;19932;-63
2022/10/08 05:49:17;;;;;;;;;;;10.20;99.90;;;;;;6116055;23;19932;-64
2022/10/08 05:51:42;;;;;;;;;;;10.30;99.90;;;;;;6116138;23;20340;-63
2022/10/08 05:54:08;;;;;;;;;;;10.30;99.90;;;;;;6086954;23;19978;-65
2022/10/08 05:56:33;;;;;;;;;;;10.20;99.90;;;;;;6115903;23;20006;-62
2022/10/08 05:58:59;;;;;;;;;;;10.30;99.90;;;;;;6115081;23;19925;-63
2022/10/08 06:01:26;;;;;;;;;;;10.30;99.90;;;;;;6116783;23;20378;-61
2022/10/08 06:03:56;;;;;;;;;;;10.80;99.90;;;;;;6115883;23;20004;-63
2022/10/08 06:06:22;;;;;;;;;;;10.30;99.90;;;;;;6114815;23;19925;-62
2022/10/08 06:08:52;;;;;;;;;;;10.30;99.90;;;;;;6114493;23;19959;-65
2022/10/08 06:11:17;;;;;;;;;;;10.40;99.90;;;;;;6115314;23;19925;-65
2022/10/08 06:13:43;;;;;;;;;;;10.40;99.90;;;;;;6115318;23;19971;-63
2022/10/08 06:16:09;;;;;;;;;;;10.40;99.90;;;;;;6115149;23;19929;-63
2022/10/08 06:18:36;;;;;;;;;;;10.40;99.90;;;;;;6115246;23;20004;-64
2022/10/08 06:21:12;;;;;;;;;;;10.40;99.90;;;;;;6115834;23;19992;-66
2022/10/08 06:23:38;;;;;;;;;;;10.40;99.90;;;;;;6115632;23;19971;-62
2022/10/08 06:26:05;;;;;;;;;;;10.50;99.90;;;;;;6114237;23;19929;-62
2022/10/08 06:28:31;;;;;;;;;;;10.50;99.90;;;;;;6116563;23;19956;-62
2022/10/08 06:30:57;;;;;;;;;;;10.50;99.90;;;;;;6115256;23;19932;-63
2022/10/08 06:33:23;;;;;;;;;;;10.60;99.90;;;;;;6113366;23;20335;-63
2022/10/08 06:35:48;;;;;;;;;;;10.60;99.90;;;;;;6116143;23;20240;-65
2022/10/08 06:38:14;;;;;;;;;;;10.70;99.90;;;;;;6114283;23;19979;-64
2022/10/08 06:40:39;;;;;;;;;;;10.70;99.90;;;;;;6114005;23;20012;-61
2022/10/08 06:43:06;;;;;;;;;;;10.80;99.90;;;;;;6116495;23;20246;-61
2022/10/08 06:45:38;;;;;;;;;;;10.80;99.90;;;;;;6114377;23;19924;-62
2022/10/08 06:48:04;;;;;;;;;;;9.30;99.90;;;;;;6116862;23;19929;-61
2022/10/08 06:50:29;;;;;;;;;;;11.30;99.90;;;;;;6116008;23;19983;-61
2022/10/08 06:52:55;;;;;;;;;;;11.20;99.90;;;;;;6116227;23;19999;-61
2022/10/08 06:55:20;;;;;;;;;;;11.20;99.90;;;;;;6115978;23;19925;-61
2022/10/08 06:57:46;;;;;;;;;;;11.20;99.90;;;;;;6116580;23;19925;-61
2022/10/08 07:00:12;;;;;;;;;;;11.30;99.90;;;;;;6116544;23;19932;-62
2022/10/08 07:02:37;;;;;;;;;;;11.30;99.90;;;;;;6114913;23;20405;-62
2022/10/08 07:05:03;;;;;;;;;;;11.50;99.90;;;;;;6115581;23;19929;-65
2022/10/08 07:07:29;;;;;;;;;;;11.70;99.90;;;;;;6115526;23;19925;-64
2022/10/08 07:09:54;;;;;;;;;;;11.80;99.90;;;;;;6115483;23;19936;-64
2022/10/08 07:12:20;;;;;;;;;;;12.00;99.90;;;;;;6115933;23;20298;-62
2022/10/08 07:14:45;;;;;;;;;;;12.00;99.90;;;;;;6116586;23;20339;-62
2022/10/08 07:17:11;;;;;;;;;;;12.10;99.90;;;;;;6116222;23;20232;-62
2022/10/08 07:19:36;;;;;;;;;;;12.00;99.90;;;;;;6116344;23;20370;-62
2022/10/08 07:22:02;;;;;;;;;;;11.90;99.90;;;;;;6116972;23;19929;-61
2022/10/08 07:24:27;;;;;;;;;;;11.90;99.90;;;;;;6116699;23;20042;-62
2022/10/08 07:26:53;;;;;;;;;;;11.70;99.90;;;;;;6116497;23;20277;-62
2022/10/08 07:29:18;;;;;;;;;;;11.70;99.90;;;;;;6115091;23;20257;-61
2022/10/08 07:31:44;;;;;;;;;;;11.70;99.90;;;;;;6113368;23;20287;-62
2022/10/08 07:34:10;;;;;;;;;;;11.70;99.90;;;;;;6116267;23;19925;-62
2022/10/08 07:36:36;;;;;;;;;;;11.70;99.90;;;;;;6115832;23;19991;-62
2022/10/08 07:39:04;;;;;;;;;;;11.80;99.90;;;;;;6116438;23;20378;-62
2022/10/08 07:41:30;;;;;;;;;;;11.80;99.90;;;;;;6116309;23;19996;-62
2022/10/08 07:44:00;;;;;;;;;;;11.90;99.90;;;;;;6116183;23;19924;-64
2022/10/08 07:46:31;;;;;;;;;;;11.90;99.90;;;;;;6116297;23;19971;-64
2022/10/08 07:48:57;;;;;;;;;;;12.00;99.90;;;;;;6115866;23;19948;-62
2022/10/08 07:51:24;;;;;;;;;;;12.00;99.90;;;;;;6115060;23;20531;-62
2022/10/08 07:53:49;;;;;;;;;;;12.10;99.90;;;;;;6115575;23;19932;-63
2022/10/08 07:56:16;;;;;;;;;;;12.30;99.90;;;;;;6114421;23;19925;-62
2022/10/08 07:58:42;;;;;;;;;;;12.50;99.90;;;;;;6115542;23;20010;-63
2022/10/08 08:01:11;;;;;;;;;;;12.60;99.90;;;;;;6116691;23;20002;-65
2022/10/08 08:03:36;;;;;;;;;;;12.60;99.90;;;;;;6115869;23;19971;-65
2022/10/08 08:06:08;;;;;;;;;;;12.50;99.90;;;;;;6116285;23;19928;-63
2022/10/08 08:08:34;;;;;;;;;;;12.50;99.90;;;;;;6115001;23;20490;-61
2022/10/08 08:11:00;;;;;;;;;;;12.50;99.90;;;;;;6116110;23;20302;-62
2022/10/08 08:13:29;;;;;;;;;;;12.50;99.90;;;;;;6114938;23;20611;-62
2022/10/08 08:15:59;;;;;;;;;;;12.60;99.90;;;;;;6115121;23;20260;-64
2022/10/08 08:18:27;;;;;;;;;;;12.60;99.90;;;;;;6112345;23;19936;-62
2022/10/08 08:20:59;;;;;;;;;;;12.70;99.90;;;;;;6112907;23;19924;-62
2022/10/08 08:23:35;;;;;;;;;;;12.80;99.90;;;;;;6115229;23;19971;-61
2022/10/08 08:26:02;;;;;;;;;;;12.80;99.90;;;;;;6112471;23;20405;-64
2022/10/08 08:28:28;;;;;;;;;;;12.90;99.90;;;;;;6113804;23;19978;-63
2022/10/08 08:30:56;;;;;;;;;;;13.20;99.90;;;;;;6114104;23;20032;-63
2022/10/08 08:33:21;;;;;;;;;;;13.30;99.90;;;;;;6112540;23;20260;-65
2022/10/08 08:35:51;;;;;;;;;;;13.30;99.90;;;;;;6112323;23;19925;-62
2022/10/08 08:38:17;;;;;;;;;;;13.30;99.90;;;;;;6114716;23;19947;-66
2022/10/08 08:40:42;;;;;;;;;;;13.20;99.90;;;;;;6114351;23;20263;-64
2022/10/08 08:43:08;;;;;;;;;;;13.40;99.90;;;;;;6115981;23;20010;-63
2022/10/08 08:45:35;;;;;;;;;;;13.50;99.90;;;;;;6115182;23;19960;-63
2022/10/08 08:48:14;;;;;;;;;;;13.70;99.90;;;;;;6114565;23;19978;-65
2022/10/08 08:50:41;;;;;;;;;;;14.00;99.90;;;;;;6115655;23;19951;-63
2022/10/08 08:53:07;;;;;;;;;;;14.20;99.90;;;;;;6114065;23;19924;-66
2022/10/08 08:55:35;;;;;;;;;;;14.70;99.90;;;;;;6113728;23;19925;-64
2022/10/08 08:58:04;;;;;;;;;;;14.80;99.90;;;;;;6112961;23;20281;-64
2022/10/08 09:00:38;;;;;;;;;;;14.60;99.90;;;;;;6115491;23;19925;-63
2022/10/08 09:03:09;;;;;;;;;;;14.60;99.90;;;;;;6115706;23;19929;-64
2022/10/08 09:05:38;;;;;;;;;;;14.60;99.90;;;;;;6113894;23;19929;-67
2022/10/08 09:08:04;;;;;;;;;;;14.30;99.90;;;;;;6114381;23;19947;-63
2022/10/08 09:10:45;;;;;;;;;;;14.20;99.90;;;;;;6114347;23;20003;-62
2022/10/08 09:13:17;;;;;;;;;;;14.60;99.90;;;;;;6115145;23;19925;-63
2022/10/08 09:15:43;;;;;;;;;;;14.70;99.90;;;;;;6115530;23;20336;-66
2022/10/08 09:18:11;;;;;;;;;;;14.90;99.90;;;;;;6115704;23;19925;-62
2022/10/08 09:20:38;;;;;;;;;;;15.00;99.90;;;;;;6115504;23;19925;-62
2022/10/08 09:23:09;;;;;;;;;;;15.30;99.90;;;;;;6115438;23;19925;-62
2022/10/08 09:25:35;;;;;;;;;;;15.40;99.90;;;;;;6114428;23;19929;-63
2022/10/08 09:28:03;;;;;;;;;;;15.60;99.90;;;;;;6114472;23;19925;-62
2022/10/08 09:30:39;;;;;;;;;;;16.00;99.90;;;;;;6114966;23;19932;-64
2022/10/08 09:33:17;;;;;;;;;;;16.00;99.90;;;;;;6114392;23;19941;-64
2022/10/08 09:35:44;;;;;;;;;;;16.20;99.90;;;;;;6113774;23;19925;-65
2022/10/08 09:38:33;;;;;;;;;;;16.50;99.90;;;;;;6114768;23;20004;-65
2022/10/08 09:40:59;;;;;;;;;;;16.80;99.90;;;;;;6117312;23;20395;-63
2022/10/08 09:43:25;;;;;;;;;;;16.70;99.90;;;;;;6115639;23;19998;-63
2022/10/08 09:45:50;;;;;;;;;;;16.60;99.90;;;;;;6114929;23;20168;-63
2022/10/08 09:48:21;;;;;;;;;;;16.90;99.90;;;;;;6113797;23;19934;-63
2022/10/08 09:50:55;;;;;;;;;;;16.70;99.90;;;;;;6115347;23;19929;-63
2022/10/08 09:53:21;;;;;;;;;;;16.40;99.90;;;;;;6114270;23;19925;-62
2022/10/08 09:55:49;;;;;;;;;;;16.30;99.90;;;;;;6111848;23;19929;-61
2022/10/08 09:58:16;;;;;;;;;;;15.90;99.90;;;;;;6113862;23;19929;-62
2022/10/08 10:00:41;;;;;;;;;;;15.20;99.90;;;;;;6112453;23;19925;-62
2022/10/08 10:03:15;;;;;;;;;;;15.10;99.90;;;;;;6114162;23;19931;-62
2022/10/08 10:05:41;;;;;;;;;;;15.30;99.90;;;;;;6114511;23;19925;-62
2022/10/08 10:08:21;;;;;;;;;;;15.30;99.90;;;;;;6115571;23;19925;-63
2022/10/08 10:10:47;;;;;;;;;;;15.50;99.90;;;;;;6115605;23;19928;-62
2022/10/08 10:13:32;;;;;;;;;;;14.50;99.90;;;;;;6115290;23;19925;-62
2022/10/08 10:15:58;;;;;;;;;;;14.10;99.90;;;;;;6115570;23;19925;-62
2022/10/08 10:18:38;;;;;;;;;;;14.10;99.90;;;;;;6113034;23;19929;-62
2022/10/08 10:21:05;;;;;;;;;;;13.80;99.90;;;;;;6115241;23;20649;-62
2022/10/08 10:23:33;;;;;;;;;;;13.70;99.90;;;;;;6115347;23;19989;-62
2022/10/08 10:26:22;;;;;;;;;;;13.50;99.90;;;;;;6115494;23;19999;-63
2022/10/08 10:28:53;;;;;;;;;;;13.50;99.90;;;;;;6118080;23;19932;-62
2022/10/08 10:31:26;;;;;;;;;;;13.30;99.90;;;;;;6115612;23;19932;-62
2022/10/08 10:33:55;;;;;;;;;;;13.70;99.90;;;;;;6115084;23;19925;-63
2022/10/08 10:36:22;;;;;;;;;;;14.00;99.90;;;;;;6115374;23;20356;-63
2022/10/08 10:38:53;;;;;;;;;;;14.40;99.90;;;;;;6115283;23;19921;-65
2022/10/08 10:41:28;;;;;;;;;;;14.60;99.90;;;;;;6115250;23;20024;-63
2022/10/08 10:43:59;;;;;;;;;;;14.80;99.90;;;;;;6114904;23;19984;-62
2022/10/08 10:46:43;;;;;;;;;;;15.30;99.90;;;;;;6116101;23;19929;-63
2022/10/08 10:49:16;;;;;;;;;;;15.50;99.90;;;;;;6116216;23;20030;-65
2022/10/08 10:51:42;;;;;;;;;;;15.50;99.90;;;;;;6116116;23;19925;-63
2022/10/08 10:54:07;;;;;;;;;;;16.00;99.90;;;;;;6115741;23;19931;-65
2022/10/08 10:56:36;;;;;;;;;;;15.90;99.90;;;;;;6115402;23;20269;-63
2022/10/08 10:59:16;;;;;;;;;;;15.60;99.90;;;;;;6116303;23;19932;-63
2022/10/08 11:01:41;;;;;;;;;;;15.10;99.90;;;;;;6116163;23;19958;-63
2022/10/08 11:04:10;;;;;;;;;;;14.80;99.90;;;;;;6115457;23;19925;-64
2022/10/08 11:06:58;;;;;;;;;;;15.20;99.90;;;;;;6116094;23;20001;-67
2022/10/08 11:10:02;;;;;;;;;;;15.60;99.90;;;;;;6114394;23;20034;-67
2022/10/08 11:12:55;;;;;;;;;;;15.80;99.90;;;;;;6143634;23;19924;-63
2022/10/08 11:15:43;;;;;;;;;;;16.20;99.90;;;;;;6141389;23;19932;-64
2022/10/08 11:18:09;;;;;;;;;;;16.40;99.90;;;;;;6116122;23;19925;-68
2022/10/08 11:20:53;;;;;;;;;;;17.50;99.90;;;;;;6114200;23;19996;-66
2022/10/08 11:23:37;;;;;;;;;;;17.00;99.90;;;;;;6115818;23;20223;-64
2022/10/08 11:26:19;;;;;;;;;;;16.20;99.90;;;;;;6115866;23;20233;-63
2022/10/08 11:28:48;;;;;;;;;;;15.50;99.90;;;;;;6114119;23;19929;-66
2022/10/08 11:31:33;;;;;;;;;;;15.00;99.90;;;;;;6114299;23;19925;-64
2022/10/08 11:33:59;;;;;;;;;;;14.90;99.90;;;;;;6114784;23;19979;-63
2022/10/08 11:36:24;;;;;;;;;;;14.70;99.90;;;;;;6115295;23;19929;-64
2022/10/08 11:38:59;;;;;;;;;;;14.50;99.90;;;;;;6115530;23;19925;-66
2022/10/08 11:41:32;;;;;;;;;;;14.30;99.90;;;;;;6115364;23;19936;-69
2022/10/08 11:43:59;;;;;;;;;;;14.50;99.90;;;;;;6115044;23;20359;-65
2022/10/08 11:46:28;;;;;;;;;;;15.20;99.90;;;;;;6115315;23;19929;-65
2022/10/08 11:48:59;;;;;;;;;;;15.70;99.90;;;;;;6115802;23;20015;-64
2022/10/08 11:51:25;;;;;;;;;;;15.40;99.90;;;;;;6115693;23;19929;-63
2022/10/08 11:54:11;;;;;;;;;;;15.10;99.90;;;;;;6115871;23;19979;-62
2022/10/08 11:56:38;;;;;;;;;;;14.40;99.90;;;;;;6115870;23;20014;-61
2022/10/08 11:59:22;;;;;;;;;;;13.80;99.90;;;;;;6115304;23;20370;-63
2022/10/08 12:01:51;;;;;;;;;;;13.60;99.90;;;;;;6115935;23;19932;-62
2022/10/08 12:04:19;;;;;;;;;;;14.60;99.90;;;;;;6115210;23;19924;-62
2022/10/08 12:06:46;;;;;;;;;;;14.90;99.90;;;;;;6112621;23;19925;-62
2022/10/08 12:09:22;;;;;;;;;;;15.00;99.90;;;;;;6114072;23;20344;-62
2022/10/08 12:11:48;;;;;;;;;;;14.20;99.90;;;;;;6113520;23;19925;-62
2022/10/08 12:14:14;;;;;;;;;;;13.70;99.90;;;;;;6114825;23;20011;-62
2022/10/08 12:16:46;;;;;;;;;;;13.70;99.90;;;;;;6115433;23;19953;-61
2022/10/08 12:19:34;;;;;;;;;;;13.50;99.90;;;;;;6114102;23;19994;-62
2022/10/08 12:22:15;;;;;;;;;;;13.50;99.90;;;;;;6126806;23;20236;-62
2022/10/08 12:24:43;;;;;;;;;;;13.90;99.90;;;;;;6114131;23;20005;-62
2022/10/08 12:27:15;;;;;;;;;;;14.60;99.90;;;;;;6108812;23;19925;-62
2022/10/08 12:29:54;;;;;;;;;;;14.90;99.90;;;;;;6111541;23;19964;-62
2022/10/08 12:32:20;;;;;;;;;;;15.10;99.90;;;;;;6111336;23;19925;-62
2022/10/08 12:34:45;;;;;;;;;;;14.80;99.90;;;;;;6113522;23;20015;-62
2022/10/08 12:37:18;;;;;;;;;;;15.10;99.90;;;;;;6113959;23;20343;-62
2022/10/08 12:39:44;;;;;;;;;;;15.40;99.90;;;;;;6114695;23;19948;-63
2022/10/08 12:42:10;;;;;;;;;;;15.50;99.90;;;;;;6113535;23;20251;-62
2022/10/08 12:44:35;;;;;;;;;;;15.70;99.90;;;;;;6114379;23;20281;-62
2022/10/08 12:47:01;;;;;;;;;;;15.90;99.90;;;;;;6111207;23;19925;-62
2022/10/08 12:49:32;;;;;;;;;;;16.20;99.90;;;;;;6113638;23;19925;-62
2022/10/08 12:52:06;;;;;;;;;;;16.70;99.90;;;;;;6113526;23;19929;-62
2022/10/08 12:54:32;;;;;;;;;;;16.50;99.90;;;;;;6113942;23;19925;-62
2022/10/08 12:56:59;;;;;;;;;;;16.10;99.90;;;;;;6111057;23;19925;-61
2022/10/08 12:59:26;;;;;;;;;;;15.80;99.90;;;;;;6114641;23;19936;-61
2022/10/08 13:01:53;;;;;;;;;;;15.20;99.90;;;;;;6113374;23;20013;-63
2022/10/08 13:04:25;;;;;;;;;;;14.90;99.90;;;;;;6114038;23;19925;-61
2022/10/08 13:06:52;;;;;;;;;;;14.90;99.90;;;;;;6114096;23;19925;-62
2022/10/08 13:09:24;;;;;;;;;;;15.10;99.90;;;;;;6113821;23;20407;-65
2022/10/08 13:11:50;;;;;;;;;;;15.40;99.90;;;;;;6112142;23;20322;-66
2022/10/08 13:14:22;;;;;;;;;;;15.30;99.90;;;;;;6111503;23;19931;-63
2022/10/08 13:16:48;;;;;;;;;;;15.20;99.90;;;;;;6110894;23;19924;-64
2022/10/08 13:19:17;;;;;;;;;;;14.90;99.90;;;;;;6113229;23;20196;-64
2022/10/08 13:21:53;;;;;;;;;;;14.50;99.90;;;;;;6113736;23;19925;-63
2022/10/08 13:24:19;;;;;;;;;;;13.90;99.90;;;;;;6109788;23;19925;-62
2022/10/08 13:26:49;;;;;;;;;;;13.50;99.90;;;;;;6109321;23;20326;-63
2022/10/08 13:29:20;;;;;;;;;;;13.30;99.90;;;;;;6111784;23;19928;-62
2022/10/08 13:32:04;;;;;;;;;;;13.20;99.90;;;;;;6112446;23;19993;-62
2022/10/08 13:34:39;;;;;;;;;;;13.30;99.90;;;;;;6112551;23;19925;-62
2022/10/08 13:37:06;;;;;;;;;;;13.70;99.90;;;;;;6111335;23;19932;-62
2022/10/08 13:39:33;;;;;;;;;;;14.00;99.90;;;;;;6112262;23;19967;-62
2022/10/08 13:42:00;;;;;;;;;;;15.40;99.90;;;;;;6112410;23;19925;-62
2022/10/08 13:44:26;;;;;;;;;;;16.00;99.90;;;;;;6115532;23;20306;-62
2022/10/08 13:46:52;;;;;;;;;;;17.20;99.90;;;;;;6115231;23;20258;-62
2022/10/08 13:49:22;;;;;;;;;;;18.40;99.90;;;;;;6114935;23;20003;-64
2022/10/08 13:51:48;;;;;;;;;;;19.30;99.90;;;;;;6115507;23;20013;-64
2022/10/08 13:54:20;;;;;;;;;;;20.00;99.90;;;;;;6115114;23;19933;-66
2022/10/08 13:56:45;;;;;;;;;;;19.60;99.90;;;;;;6114260;23;19931;-64
2022/10/08 13:59:11;;;;;;;;;;;19.00;99.90;;;;;;6114443;23;20032;-62
2022/10/08 14:01:36;;;;;;;;;;;18.40;99.90;;;;;;6113216;23;19956;-62
2022/10/08 14:04:02;;;;;;;;;;;17.30;99.90;;;;;;6113485;23;20259;-62
2022/10/08 14:06:30;;;;;;;;;;;16.80;99.90;;;;;;6112906;23;20339;-61
2022/10/08 14:08:56;;;;;;;;;;;16.50;99.90;;;;;;6113673;23;19964;-62
2022/10/08 14:11:22;;;;;;;;;;;16.20;99.90;;;;;;6114962;23;19925;-62
2022/10/08 14:13:47;;;;;;;;;;;15.90;99.90;;;;;;6114643;23;19990;-62
2022/10/08 14:16:13;;;;;;;;;;;15.80;99.90;;;;;;6115382;23;20143;-64
2022/10/08 14:18:38;;;;;;;;;;;15.50;99.90;;;;;;6113974;23;19971;-64
2022/10/08 14:21:04;;;;;;;;;;;15.50;99.90;;;;;;6115249;23;19929;-63
2022/10/08 14:23:31;;;;;;;;;;;15.50;99.90;;;;;;6114458;23;19925;-62
2022/10/08 14:25:57;;;;;;;;;;;15.60;99.90;;;;;;6113389;23;19975;-62